Time;durP1;ratioP1;P1;durP2;ratioP2;P2;SDS_P1;SDS_P2;PMS_P1;PMS_P2;Temp;Humidity;BMP_temperature;BMP_pressure;BME280_temperature;BME280_humidity;BME280_pressure;Samples;Min_cycle;Max_cycle;Signal;HPM_P1;HPM_P2
2023/01/10 00:00:50;;;;;;;23.20;11.23;;;;;;;4.14;100.00;93685.91;5052908;28;20256;-52
2023/01/10 00:03:16;;;;;;;22.57;11.77;;;;;;;4.06;100.00;93683.19;5053180;28;20209;-57
2023/01/10 00:05:41;;;;;;;20.77;11.20;;;;;;;3.97;100.00;93663.78;5053026;28;20193;-52
2023/01/10 00:08:08;;;;;;;21.47;10.80;;;;;;;3.79;100.00;93647.56;5053047;28;20183;-54
2023/01/10 00:10:34;;;;;;;22.43;10.90;;;;;;;3.79;100.00;93654.28;5053089;28;20248;-53
2023/01/10 00:15:44;;;;;;;19.07;11.17;;;;;;;3.70;100.00;93665.00;5053098;28;20264;-54
2023/01/10 00:18:10;;;;;;;21.07;11.03;;;;;;;3.71;100.00;93654.88;5053024;28;20225;-58
2023/01/10 00:20:36;;;;;;;20.27;10.70;;;;;;;3.79;100.00;93665.16;5052644;28;20588;-53
2023/01/10 00:23:02;;;;;;;18.73;10.20;;;;;;;3.73;100.00;93690.75;5034838;28;20584;-54
2023/01/10 00:25:28;;;;;;;22.27;10.70;;;;;;;3.98;100.00;93702.28;5052710;28;20315;-54
2023/01/10 00:30:39;;;;;;;22.43;10.87;;;;;;;3.88;100.00;93694.63;5052949;28;20253;-54
2023/01/10 00:33:06;;;;;;;19.50;10.80;;;;;;;4.01;100.00;93705.38;5052715;28;20708;-53
2023/01/10 00:35:32;;;;;;;17.27;10.17;;;;;;;3.90;100.00;93664.34;5052031;28;20267;-53
2023/01/10 00:38:04;;;;;;;21.10;10.67;;;;;;;4.07;100.00;93677.25;5051938;28;20647;-57
2023/01/10 00:40:30;;;;;;;21.63;11.47;;;;;;;4.10;100.00;93691.31;5052415;28;20304;-57
2023/01/10 00:45:39;;;;;;;17.23;10.07;;;;;;;4.08;100.00;93656.22;5052404;28;20252;-56
2023/01/10 00:48:04;;;;;;;20.03;10.80;;;;;;;4.14;100.00;93648.19;5052316;28;20268;-54
2023/01/10 00:50:30;;;;;;;21.40;10.30;;;;;;;4.12;100.00;93652.53;5051992;28;20227;-53
2023/01/10 00:52:55;;;;;;;19.73;10.37;;;;;;;4.22;100.00;93683.63;5052026;28;20284;-53
2023/01/10 00:55:21;;;;;;;18.60;10.23;;;;;;;4.02;100.00;93663.44;5052455;28;20221;-56
2023/01/10 00:57:46;;;;;;;18.93;10.47;;;;;;;4.07;100.00;93667.19;5052429;28;20578;-55
2023/01/10 01:00:12;;;;;;;17.80;10.00;;;;;;;4.06;100.00;93678.16;5052579;28;20214;-55
2023/01/10 01:02:37;;;;;;;18.87;10.07;;;;;;;4.12;100.00;93627.41;5034631;28;20208;-52
2023/01/10 01:05:04;;;;;;;19.73;10.13;;;;;;;4.11;100.00;93635.06;5052279;28;20218;-56
2023/01/10 01:07:29;;;;;;;20.93;10.43;;;;;;;4.03;100.00;93623.09;5051968;28;20236;-53
2023/01/10 01:12:38;;;;;;;17.97;10.17;;;;;;;4.14;100.00;93645.69;5052123;28;20348;-56
2023/01/10 01:15:04;;;;;;;19.27;10.43;;;;;;;4.13;100.00;93643.28;5051872;28;20285;-57
2023/01/10 01:17:30;;;;;;;17.47;10.13;;;;;;;4.40;100.00;93666.34;5051829;28;20188;-54
2023/01/10 01:19:55;;;;;;;16.63;10.10;;;;;;;4.42;100.00;93663.72;5052257;28;20219;-54
2023/01/10 01:22:21;;;;;;;20.43;10.53;;;;;;;4.37;100.00;93626.31;5051819;28;20243;-54
2023/01/10 01:24:46;;;;;;;16.57;9.80;;;;;;;4.40;100.00;93671.38;5052058;28;20201;-56
2023/01/10 01:27:11;;;;;;;18.40;10.07;;;;;;;4.24;100.00;93665.94;5051685;28;20193;-54
2023/01/10 01:29:44;;;;;;;18.57;9.90;;;;;;;4.12;100.00;93627.41;5051889;28;20212;-57
2023/01/10 01:32:09;;;;;;;17.57;9.30;;;;;;;4.31;100.00;93614.22;5051434;28;20203;-55
2023/01/10 01:34:35;;;;;;;16.73;9.13;;;;;;;4.12;100.00;93651.78;5051039;28;20204;-54
2023/01/10 01:37:00;;;;;;;18.33;10.47;;;;;;;4.17;100.00;93664.78;5050702;28;20221;-56
2023/01/10 01:39:25;;;;;;;18.77;10.00;;;;;;;4.20;100.00;93634.38;5051814;28;20282;-54
2023/01/10 01:41:57;;;;;;;19.63;9.97;;;;;;;4.43;100.00;93655.22;5051443;28;20200;-58
2023/01/10 01:44:23;;;;;;;17.23;10.00;;;;;;;4.24;100.00;93626.47;5051644;28;20220;-53
2023/01/10 01:47:04;;;;;;;17.33;9.60;;;;;;;4.20;100.00;93621.81;5051167;28;20205;-57
2023/01/10 01:49:32;;;;;;;19.53;9.47;;;;;;;4.38;100.00;93658.13;5051721;28;20621;-56
2023/01/10 01:52:03;;;;;;;16.67;8.80;;;;;;;4.58;100.00;93656.56;5050050;28;20205;-52
2023/01/10 01:54:30;;;;;;;16.87;9.30;;;;;;;4.58;100.00;93651.53;5051109;28;20397;-56
2023/01/10 01:57:11;;;;;;;17.60;8.83;;;;;;;4.60;100.00;93642.97;5051227;28;20180;-52
2023/01/10 01:59:41;;;;;;;16.93;9.77;;;;;;;4.78;100.00;93656.63;5051117;28;20278;-53
2023/01/10 02:02:13;;;;;;;15.97;9.93;;;;;;;4.73;100.00;93627.69;5051189;28;20693;-54
2023/01/10 02:04:59;;;;;;;17.70;9.30;;;;;;;4.68;100.00;93629.78;5051488;28;20209;-56
2023/01/10 02:07:30;;;;;;;15.00;9.10;;;;;;;4.82;100.00;93627.78;5050931;28;20210;-55
2023/01/10 02:10:08;;;;;;;18.40;10.40;;;;;;;4.80;100.00;93622.06;5051271;28;20211;-54
2023/01/10 02:12:35;;;;;;;17.57;11.00;;;;;;;4.21;100.00;93576.41;5050930;28;20206;-57
2023/01/10 02:15:02;;;;;;;16.70;9.70;;;;;;;4.13;100.00;93582.94;5051082;28;20212;-57
2023/01/10 02:17:27;;;;;;;22.13;10.00;;;;;;;4.26;100.00;93554.22;5051095;28;20185;-57
2023/01/10 02:20:21;;;;;;;16.60;9.87;;;;;;;4.74;100.00;93599.91;5051031;28;20258;-54
2023/01/10 02:23:02;;;;;;;13.70;8.90;;;;;;;4.74;100.00;93607.44;5030772;28;20727;-53
2023/01/10 02:25:55;;;;;;;19.40;11.17;;;;;;;4.32;100.00;93573.06;5050984;28;20309;-52
2023/01/10 02:28:38;;;;;;;17.70;10.00;;;;;;;4.26;100.00;93568.53;5050985;28;20182;-53
2023/01/10 02:31:22;;;;;;;20.73;9.80;;;;;;;4.52;100.00;93589.13;5050749;28;20212;-53
2023/01/10 02:34:18;;;;;;;16.77;9.20;;;;;;;4.70;100.00;93587.69;5050879;28;20210;-54
2023/01/10 02:36:49;;;;;;;18.30;10.40;;;;;;;4.87;100.00;93599.69;5050929;28;20199;-53
2023/01/10 02:39:42;;;;;;;14.53;8.90;;;;;;;4.86;100.00;93570.44;5050644;28;20224;-58
2023/01/10 02:42:14;;;;;;;21.47;11.23;;;;;;;4.58;100.00;93573.53;5036885;28;20207;-54
2023/01/10 02:45:24;;;;;;;14.93;8.33;;;;;;;4.58;100.00;93563.47;5050563;28;20257;-55
2023/01/10 02:47:50;;;;;;;16.80;9.10;;;;;;;4.75;100.00;93573.00;5047370;28;20748;-52
2023/01/10 02:50:26;;;;;;;15.70;9.60;;;;;;;4.84;100.00;93587.38;5032721;28;20278;-54
2023/01/10 02:52:52;;;;;;;14.50;8.77;;;;;;;4.89;100.00;93588.59;5050713;28;20189;-57
2023/01/10 02:55:25;;;;;;;16.23;9.17;;;;;;;4.98;100.00;93595.44;5049233;28;20709;-58
2023/01/10 02:58:29;;;;;;;13.33;8.43;;;;;;;5.09;100.00;93618.00;5050338;28;20698;-56
2023/01/10 03:01:25;;;;;;;16.03;8.77;;;;;;;5.23;100.00;93632.03;5053440;28;20282;-54
2023/01/10 03:04:12;;;;;;;18.23;9.67;;;;;;;5.01;100.00;93627.91;5054199;28;20657;-53
2023/01/10 03:06:47;;;;;;;14.33;8.50;;;;;;;4.78;100.00;93601.25;5053884;28;20616;-55
2023/01/10 03:09:24;;;;;;;15.87;9.83;;;;;;;4.86;100.00;93603.97;5054141;28;20196;-56
2023/01/10 03:11:57;;;;;;;17.20;9.53;;;;;;;4.73;100.00;93575.63;5054228;28;20688;-53
2023/01/10 03:14:27;;;;;;;17.80;10.40;;;;;;;4.80;100.00;93576.75;5053617;28;20709;-53
2023/01/10 03:16:57;;;;;;;15.07;8.87;;;;;;;4.79;100.00;93602.84;5053866;28;20270;-55
2023/01/10 03:19:27;;;;;;;14.97;9.03;;;;;;;4.70;100.00;93588.47;5053998;28;20217;-53
2023/01/10 03:22:12;;;;;;;16.10;9.20;;;;;;;4.86;100.00;93603.97;5052659;28;20228;-53
2023/01/10 03:24:41;;;;;;;15.10;9.23;;;;;;;4.99;100.00;93624.72;5053707;28;20220;-53
2023/01/10 03:27:18;;;;;;;19.03;10.10;;;;;;;4.72;100.00;93596.72;5053875;28;20188;-52
2023/01/10 03:30:01;;;;;;;16.00;9.17;;;;;;;4.88;100.00;93621.47;5053748;28;20558;-54
2023/01/10 03:32:29;;;;;;;14.13;8.97;;;;;;;4.80;100.00;93617.03;5053566;28;20627;-52
2023/01/10 03:34:56;;;;;;;15.33;9.80;;;;;;;4.55;100.00;93586.34;5053849;28;20212;-53
2023/01/10 03:37:34;;;;;;;16.90;9.30;;;;;;;4.65;100.00;93609.88;5053532;28;20193;-53
2023/01/10 03:40:21;;;;;;;15.30;9.37;;;;;;;4.50;100.00;93593.47;5053552;28;20203;-52
2023/01/10 03:45:43;;;;;;;15.03;8.93;;;;;;;4.37;100.00;93593.63;5053394;28;20283;-56
2023/01/10 03:48:11;;;;;;;19.13;8.93;;;;;;;4.51;100.00;93595.06;5053458;28;20182;-55
2023/01/10 03:50:39;;;;;;;17.03;9.77;;;;;;;4.43;100.00;93600.69;5053292;28;20225;-57
2023/01/10 03:53:04;;;;;;;16.00;9.27;;;;;;;4.58;100.00;93589.44;5053450;28;20202;-55
2023/01/10 03:55:31;;;;;;;15.40;8.97;;;;;;;4.67;100.00;93601.28;5053473;28;20591;-57
2023/01/10 03:57:57;;;;;;;15.77;9.87;;;;;;;4.79;100.00;93592.78;5051978;28;20189;-56
2023/01/10 04:00:23;;;;;;;14.17;8.77;;;;;;;4.81;100.00;93580.84;5053272;28;20290;-54
2023/01/10 04:02:48;;;;;;;16.53;9.83;;;;;;;5.13;100.00;93616.03;5053037;28;20204;-56
2023/01/10 04:05:14;;;;;;;14.70;8.97;;;;;;;5.16;100.00;93594.84;5053336;28;20607;-57
2023/01/10 04:07:39;;;;;;;16.40;8.47;;;;;;;5.13;100.00;93570.72;5053198;28;20295;-52
2023/01/10 04:10:05;;;;;;;15.97;9.40;;;;;;;5.25;100.00;93563.91;5053242;28;20220;-53
2023/01/10 04:12:31;;;;;;;12.10;8.47;;;;;;;5.19;100.00;93556.84;5053161;28;20192;-54
2023/01/10 04:14:56;;;;;;;13.33;8.93;;;;;;;5.21;100.00;93567.59;5052872;28;20271;-57
2023/01/10 04:17:21;;;;;;;17.03;9.30;;;;;;;5.03;100.00;93545.47;5053131;28;20617;-55
2023/01/10 04:19:47;;;;;;;17.80;9.63;;;;;;;4.98;100.00;93542.56;5053341;28;20212;-57
2023/01/10 04:22:12;;;;;;;16.83;9.00;;;;;;;4.86;100.00;93543.53;5052936;28;20204;-57
2023/01/10 04:24:39;;;;;;;17.47;9.53;;;;;;;4.87;100.00;93545.13;5053185;28;20210;-58
2023/01/10 04:27:04;;;;;;;16.13;8.87;;;;;;;4.81;100.00;93559.91;5035066;28;20185;-55
2023/01/10 04:29:30;;;;;;;14.83;8.97;;;;;;;4.87;100.00;93595.47;5052841;28;20219;-52
2023/01/10 04:31:55;;;;;;;14.23;8.43;;;;;;;4.91;100.00;93608.59;5052781;28;20195;-58
2023/01/10 04:34:21;;;;;;;15.37;8.83;;;;;;;4.86;100.00;93623.28;5034818;28;20682;-55
2023/01/10 04:36:47;;;;;;;15.70;9.70;;;;;;;4.60;100.00;93572.50;5052836;28;20252;-53
2023/01/10 04:39:13;;;;;;;15.10;9.77;;;;;;;4.62;100.00;93580.72;5052804;28;20193;-57
2023/01/10 04:41:39;;;;;;;16.87;9.47;;;;;;;4.55;100.00;93581.31;5052835;28;20197;-55
2023/01/10 04:44:05;;;;;;;16.90;9.47;;;;;;;4.72;100.00;93604.25;5052719;28;20200;-55
2023/01/10 04:46:31;;;;;;;17.27;10.70;;;;;;;4.94;100.00;93636.88;5052727;28;20637;-54
2023/01/10 04:48:57;;;;;;;21.03;10.13;;;;;;;4.99;100.00;93639.00;5052748;28;20557;-54
2023/01/10 04:51:24;;;;;;;16.83;9.30;;;;;;;5.05;100.00;93639.34;5052663;28;20200;-55
2023/01/10 04:53:49;;;;;;;16.10;9.27;;;;;;;4.95;100.00;93622.56;5052394;28;20243;-57
2023/01/10 04:56:18;;;;;;;16.80;10.13;;;;;;;4.77;100.00;93597.13;5034216;28;20212;-54
2023/01/10 04:58:44;;;;;;;14.50;8.73;;;;;;;4.75;100.00;93580.53;5052226;28;20191;-57
2023/01/10 05:01:15;;;;;;;15.13;7.43;;;;;;;4.76;100.00;93602.28;5052493;28;20213;-58
2023/01/10 05:03:41;;;;;;;14.57;8.73;;;;;;;4.68;100.00;93582.78;5034830;28;20665;-53
2023/01/10 05:06:07;;;;;;;16.20;9.33;;;;;;;4.57;100.00;93551.81;5052255;28;20244;-54
2023/01/10 05:08:33;;;;;;;15.60;8.60;;;;;;;4.45;100.00;93543.50;5034286;28;20585;-54
2023/01/10 05:10:59;;;;;;;17.93;9.07;;;;;;;4.31;100.00;93525.38;5034302;28;20296;-54
2023/01/10 05:13:25;;;;;;;16.00;9.70;;;;;;;4.23;100.00;93513.41;5052207;28;20621;-55
2023/01/10 05:15:57;;;;;;;18.97;10.60;;;;;;;4.27;100.00;93502.22;5051872;28;20211;-56
2023/01/10 05:18:27;;;;;;;16.73;10.27;;;;;;;4.31;100.00;93493.50;5051946;28;20201;-53
2023/01/10 05:20:58;;;;;;;17.33;10.23;;;;;;;4.39;100.00;93508.78;5051874;28;20208;-57
2023/01/10 05:23:24;;;;;;;18.43;9.53;;;;;;;4.50;100.00;93521.31;5051107;28;20196;-54
2023/01/10 05:25:49;;;;;;;17.40;9.77;;;;;;;4.55;100.00;93526.78;5050467;28;20633;-54
2023/01/10 05:28:14;;;;;;;18.90;9.87;;;;;;;4.73;100.00;93558.00;5050245;28;20199;-55
2023/01/10 05:30:40;;;;;;;16.13;9.53;;;;;;;4.95;100.00;93578.03;5051438;28;20218;-53
2023/01/10 05:33:06;;;;;;;19.07;9.93;;;;;;;4.90;100.00;93580.13;5051600;28;20181;-54
2023/01/10 05:35:31;;;;;;;20.17;10.60;;;;;;;4.77;100.00;93554.34;5051560;28;20580;-52
2023/01/10 05:37:57;;;;;;;20.57;11.37;;;;;;;4.84;100.00;93569.75;5051792;28;20189;-54
2023/01/10 05:40:22;;;;;;;16.73;9.63;;;;;;;4.67;100.00;93548.44;5051663;28;20288;-53
2023/01/10 05:42:47;;;;;;;18.07;10.10;;;;;;;4.82;100.00;93569.06;5051749;28;20188;-53
2023/01/10 05:45:13;;;;;;;15.57;9.13;;;;;;;4.86;100.00;93593.09;5033429;28;20266;-53
2023/01/10 05:47:39;;;;;;;14.10;8.87;;;;;;;4.82;100.00;93584.19;5051471;28;20190;-57
2023/01/10 05:50:04;;;;;;;15.67;8.70;;;;;;;4.84;100.00;93564.72;5051879;28;20207;-54
2023/01/10 05:52:30;;;;;;;14.80;8.90;;;;;;;4.84;100.00;93565.53;5051372;28;20287;-54
2023/01/10 05:54:55;;;;;;;20.43;9.23;;;;;;;4.88;100.00;93544.22;5051857;28;20728;-53
2023/01/10 05:57:23;;;;;;;16.47;9.07;;;;;;;4.81;100.00;93550.66;5033713;28;20219;-53
2023/01/10 05:59:49;;;;;;;14.33;8.63;;;;;;;4.87;100.00;93554.38;5051584;28;20215;-53
2023/01/10 06:02:14;;;;;;;15.33;8.90;;;;;;;5.01;100.00;93590.13;5051327;28;20185;-53
2023/01/10 06:04:39;;;;;;;13.87;8.93;;;;;;;5.15;100.00;93609.19;5051339;28;20346;-54
2023/01/10 06:07:05;;;;;;;17.80;9.97;;;;;;;5.04;100.00;93567.25;5051147;28;20196;-56
2023/01/10 06:09:31;;;;;;;15.63;9.10;;;;;;;5.05;100.00;93573.06;5051514;28;20220;-56
2023/01/10 06:11:57;;;;;;;17.03;9.67;;;;;;;5.19;100.00;93609.75;5051197;28;20210;-56
2023/01/10 06:14:22;;;;;;;15.93;9.50;;;;;;;5.07;100.00;93598.91;5050823;28;20295;-55
2023/01/10 06:16:48;;;;;;;15.60;9.10;;;;;;;5.09;100.00;93590.31;5051133;28;20193;-57
2023/01/10 06:19:13;;;;;;;21.13;8.87;;;;;;;5.18;100.00;93595.53;5051209;28;20245;-58
2023/01/10 06:21:39;;;;;;;17.17;9.43;;;;;;;5.24;100.00;93607.63;5051055;28;20185;-56
2023/01/10 06:24:05;;;;;;;15.90;9.00;;;;;;;5.32;100.00;93615.38;5050857;28;20220;-55
2023/01/10 06:26:30;;;;;;;13.00;8.07;;;;;;;5.32;100.00;93620.41;5051127;28;20189;-54
2023/01/10 06:28:58;;;;;;;16.00;9.07;;;;;;;5.47;100.00;93621.69;5050831;28;20202;-53
2023/01/10 06:31:24;;;;;;;15.37;9.10;;;;;;;5.36;100.00;93616.72;5051008;28;20267;-54
2023/01/10 06:33:49;;;;;;;19.13;8.83;;;;;;;5.58;100.00;93606.47;5050049;28;20305;-58
2023/01/10 06:36:15;;;;;;;17.37;9.73;;;;;;;5.72;100.00;93628.81;5032868;28;20212;-53
2023/01/10 06:38:40;;;;;;;17.30;8.83;;;;;;;6.04;100.00;93648.91;5050757;28;20272;-54
2023/01/10 06:41:12;;;;;;;14.70;9.10;;;;;;;6.20;100.00;93654.28;5050921;28;20298;-54
2023/01/10 06:43:45;;;;;;;19.50;11.20;;;;;;;6.17;100.00;93637.66;5051008;28;20572;-54
2023/01/10 06:46:18;;;;;;;16.43;9.80;;;;;;;6.02;100.00;93616.22;5051013;28;20234;-57
2023/01/10 06:48:44;;;;;;;19.00;9.93;;;;;;;5.91;100.00;93593.66;5050941;28;20196;-53
2023/01/10 06:51:11;;;;;;;17.83;10.77;;;;;;;5.87;100.00;93574.66;5050805;28;20206;-54
2023/01/10 06:53:37;;;;;;;22.87;13.30;;;;;;;5.86;100.00;93543.59;5050478;28;20212;-52
2023/01/10 06:56:04;;;;;;;23.97;14.07;;;;;;;5.75;100.00;93518.47;5050215;28;20767;-54
2023/01/10 06:58:30;;;;;;;24.10;12.50;;;;;;;5.90;100.00;93526.47;5033068;28;20226;-54
2023/01/10 07:00:56;;;;;;;17.90;10.60;;;;;;;5.93;100.00;93523.69;5050677;28;20213;-56
2023/01/10 07:03:21;;;;;;;19.80;10.63;;;;;;;5.88;100.00;93513.19;5050961;28;20243;-56
2023/01/10 07:05:46;;;;;;;17.17;9.57;;;;;;;5.86;100.00;93507.47;5032841;28;20212;-57
2023/01/10 07:08:12;;;;;;;17.20;10.23;;;;;;;5.92;100.00;93512.81;5050707;28;20189;-57
2023/01/10 07:10:42;;;;;;;16.23;9.73;;;;;;;6.06;100.00;93511.63;5050337;28;20635;-55
2023/01/10 07:13:08;;;;;;;17.00;9.90;;;;;;;5.96;100.00;93505.78;5050207;28;20182;-53
2023/01/10 07:15:34;;;;;;;16.53;9.70;;;;;;;6.06;100.00;93515.91;5050438;28;20204;-54
2023/01/10 07:17:59;;;;;;;20.80;10.70;;;;;;;6.13;100.00;93517.75;5050256;28;20196;-52
2023/01/10 07:20:26;;;;;;;19.40;10.57;;;;;;;5.92;100.00;93497.69;5050488;28;20209;-53
2023/01/10 07:22:56;;;;;;;18.10;9.97;;;;;;;6.03;100.00;93511.09;5050337;28;20181;-55
2023/01/10 07:25:22;;;;;;;18.93;10.63;;;;;;;6.08;100.00;93509.00;5050247;28;20209;-54
2023/01/10 07:27:48;;;;;;;17.90;11.00;;;;;;;6.00;100.00;93522.25;5050408;28;20181;-54
2023/01/10 07:30:13;;;;;;;22.20;11.90;;;;;;;5.84;100.00;93519.41;5050471;28;20647;-53
2023/01/10 07:32:39;;;;;;;17.27;10.37;;;;;;;5.74;100.00;93498.41;5050088;28;20189;-54
2023/01/10 07:35:04;;;;;;;16.00;10.10;;;;;;;5.71;100.00;93514.63;5050141;28;20220;-54
2023/01/10 07:37:29;;;;;;;18.33;10.10;;;;;;;5.69;100.00;93511.41;5050227;28;20579;-53
2023/01/10 07:39:55;;;;;;;15.73;9.83;;;;;;;5.65;100.00;93501.72;5050653;28;20679;-53
2023/01/10 07:42:20;;;;;;;20.53;10.67;;;;;;;5.79;100.00;93507.19;5050173;28;20185;-55
2023/01/10 07:44:46;;;;;;;19.97;10.70;;;;;;;5.75;100.00;93505.06;5032368;28;20694;-54
2023/01/10 07:47:11;;;;;;;17.83;10.07;;;;;;;5.78;100.00;93499.75;5053519;28;20247;-53
2023/01/10 07:49:37;;;;;;;17.40;10.13;;;;;;;5.78;100.00;93489.66;5053380;28;20213;-53
2023/01/10 07:52:02;;;;;;;18.17;9.30;;;;;;;5.88;100.00;93493.81;5053332;28;20268;-54
2023/01/10 07:54:28;;;;;;;14.77;8.10;;;;;;;5.86;100.00;93495.69;5053162;28;20244;-53
2023/01/10 07:56:53;;;;;;;13.60;8.50;;;;;;;5.76;100.00;93489.00;5035396;28;20200;-54
2023/01/10 07:59:18;;;;;;;11.93;7.47;;;;;;;5.91;100.00;93498.63;5051975;28;20299;-55
2023/01/10 08:01:44;;;;;;;14.13;8.80;;;;;;;5.85;100.00;93503.38;5051307;28;20315;-54
2023/01/10 08:04:09;;;;;;;17.67;9.00;;;;;;;6.03;100.00;93506.84;5052357;28;20192;-53
2023/01/10 08:06:34;;;;;;;17.40;10.30;;;;;;;6.08;100.00;93503.94;5051517;28;20914;-53
2023/01/10 08:09:02;;;;;;;19.30;10.27;;;;;;;6.13;100.00;93507.66;5052180;28;20208;-54
2023/01/10 08:11:28;;;;;;;23.97;13.53;;;;;;;6.00;100.00;93503.81;5058733;22;20248;-55
2023/01/10 08:13:53;;;;;;;22.13;12.57;;;;;;;6.00;100.00;93499.53;5052285;28;20255;-55
2023/01/10 08:16:19;;;;;;;20.83;10.97;;;;;;;5.88;100.00;93493.03;5052313;28;20209;-58
2023/01/10 08:18:45;;;;;;;28.53;11.67;;;;;;;5.85;100.00;93488.25;5034619;28;20226;-56
2023/01/10 08:21:10;;;;;;;23.63;12.70;;;;;;;5.89;100.00;93499.69;5053097;28;20291;-54
2023/01/10 08:23:36;;;;;;;23.20;10.83;;;;;;;5.90;100.00;93496.22;5053097;28;20270;-55
2023/01/10 08:26:01;;;;;;;26.13;13.27;;;;;;;6.04;100.00;93488.25;5053316;28;20271;-54
2023/01/10 08:28:27;;;;;;;27.33;12.03;;;;;;;6.16;100.00;93489.72;5053150;28;20220;-56
2023/01/10 08:30:54;;;;;;;24.50;12.23;;;;;;;6.23;100.00;93473.16;5053054;28;20243;-54
2023/01/10 08:33:24;;;;;;;23.70;13.83;;;;;;;6.25;100.00;93470.47;5051975;28;20223;-57
2023/01/10 08:35:50;;;;;;;24.37;13.07;;;;;;;6.27;100.00;93458.53;5051642;28;20213;-55
2023/01/10 08:38:16;;;;;;;21.67;11.17;;;;;;;6.20;100.00;93475.91;5052369;28;20575;-55
2023/01/10 08:40:41;;;;;;;21.63;11.40;;;;;;;6.32;100.00;93469.81;5052594;28;20210;-57
2023/01/10 08:43:10;;;;;;;21.43;11.03;;;;;;;6.36;100.00;93452.69;5052491;28;20260;-56
2023/01/10 08:45:36;;;;;;;28.23;14.40;;;;;;;6.36;100.00;93452.69;5052990;28;20214;-52
2023/01/10 08:48:03;;;;;;;18.80;11.77;;;;;;;6.37;100.00;93457.59;5052605;28;20232;-54
2023/01/10 08:50:29;;;;;;;18.50;10.80;;;;;;;6.23;100.00;93455.47;5052744;28;20217;-58
2023/01/10 08:52:58;;;;;;;15.60;9.40;;;;;;;6.19;100.00;93451.63;5052364;28;20560;-56
2023/01/10 08:55:25;;;;;;;19.83;10.63;;;;;;;6.19;100.00;93438.22;5052646;28;20304;-55
2023/01/10 08:57:51;;;;;;;25.00;13.47;;;;;;;6.07;100.00;93436.75;5051512;28;20176;-54
2023/01/10 09:00:16;;;;;;;23.07;14.33;;;;;;;6.12;100.00;93430.38;5034486;28;20255;-58
2023/01/10 09:02:42;;;;;;;29.47;16.10;;;;;;;6.19;100.00;93428.94;5052192;28;20188;-54
2023/01/10 09:05:08;;;;;;;26.43;15.47;;;;;;;6.44;100.00;93441.00;5052627;28;20291;-57
2023/01/10 09:07:34;;;;;;;25.57;14.97;;;;;;;6.56;100.00;93454.25;5052342;28;20251;-58
2023/01/10 09:09:59;;;;;;;31.03;15.13;;;;;;;6.50;100.00;93447.22;5052546;28;20216;-53
2023/01/10 09:15:09;;;;;;;27.07;15.83;;;;;;;6.51;100.00;93434.47;5052277;28;20749;-56
2023/01/10 09:17:34;;;;;;;28.90;15.20;;;;;;;6.54;100.00;93435.94;5052106;28;20185;-55
2023/01/10 09:20:00;;;;;;;25.73;15.73;;;;;;;6.55;100.00;93440.03;5051982;28;20733;-55
2023/01/10 09:22:26;;;;;;;33.00;15.80;;;;;;;6.36;100.00;93429.97;5052130;28;20631;-56
2023/01/10 09:24:51;;;;;;;30.97;17.23;;;;;;;6.19;100.00;93425.59;5034050;28;20221;-53
2023/01/10 09:27:17;;;;;;;35.37;16.60;;;;;;;6.16;100.00;93420.84;5052109;28;20188;-58
2023/01/10 09:29:42;;;;;;;28.13;16.60;;;;;;;6.32;100.00;93424.38;5033998;28;20694;-54
2023/01/10 09:32:08;;;;;;;28.93;16.63;;;;;;;6.50;100.00;93429.56;5051836;28;20178;-57
2023/01/10 09:34:34;;;;;;;28.17;15.90;;;;;;;6.55;100.00;93432.47;5051744;28;20295;-54
2023/01/10 09:36:59;;;;;;;30.77;17.87;;;;;;;6.58;100.00;93427.16;5051874;28;20327;-55
2023/01/10 09:39:27;;;;;;;30.17;16.53;;;;;;;6.77;100.00;93422.03;5051861;28;20270;-54
2023/01/10 09:42:11;;;;;;;30.30;17.57;;;;;;;6.68;100.00;93402.69;5051800;28;20189;-57
2023/01/10 09:44:57;;;;;;;36.53;17.07;;;;;;;6.69;100.00;93391.63;5051629;28;20308;-55
2023/01/10 09:47:26;;;;;;;27.47;16.53;;;;;;;6.69;100.00;93394.16;5051899;28;20231;-60
2023/01/10 09:49:51;;;;;;;29.07;14.27;;;;;;;6.66;100.00;93389.41;5051890;28;20213;-56
2023/01/10 09:52:30;;;;;;;23.80;15.07;;;;;;;6.65;100.00;93383.53;5051614;28;20178;-56
2023/01/10 09:54:59;;;;;;;30.50;15.67;;;;;;;6.37;100.00;93364.22;5051665;28;20252;-55
2023/01/10 09:57:24;;;;;;;26.90;17.23;;;;;;;6.48;100.00;93378.41;5051452;28;20196;-53
2023/01/10 09:59:52;;;;;;;28.40;16.87;;;;;;;6.54;100.00;93376.16;5051524;28;20221;-56
2023/01/10 10:02:30;;;;;;;29.90;16.97;;;;;;;6.61;100.00;93371.31;5051713;28;20197;-57
2023/01/10 10:05:11;;;;;;;32.20;17.27;;;;;;;6.54;100.00;93391.28;5051415;28;20213;-55
2023/01/10 10:07:37;;;;;;;30.93;18.43;;;;;;;6.47;100.00;93375.09;5051513;28;20208;-56
2023/01/10 10:10:10;;;;;;;35.27;19.63;;;;;;;6.08;100.00;93360.19;5050178;28;20213;-54
2023/01/10 10:13:06;;;;;;;40.37;19.80;;;;;;;5.91;100.00;93351.56;5049922;28;20249;-54
2023/01/10 10:16:01;;;;;;;33.03;18.47;;;;;;;6.01;100.00;93367.47;5042735;28;20233;-57
2023/01/10 10:18:41;;;;;;;35.77;20.90;;;;;;;5.63;100.00;93367.47;5047926;28;20213;-57
2023/01/10 10:21:27;;;;;;;37.13;20.93;;;;;;;5.82;100.00;93367.44;5049373;28;20706;-54
2023/01/10 10:23:58;;;;;;;43.80;21.17;;;;;;;5.66;100.00;93368.00;5049692;28;20243;-54
2023/01/10 10:26:46;;;;;;;38.43;20.73;;;;;;;5.52;100.00;93373.41;5049635;28;20228;-57
2023/01/10 10:29:49;;;;;;;38.90;21.53;;;;;;;5.39;100.00;93365.34;5049336;28;20192;-55
2023/01/10 10:32:22;;;;;;;39.47;20.57;;;;;;;5.37;100.00;93359.63;5050980;28;20196;-54
2023/01/10 10:35:00;;;;;;;38.17;20.97;;;;;;;5.30;100.00;93356.03;5051102;28;20290;-58
2023/01/10 10:37:39;;;;;;;38.40;20.80;;;;;;;5.35;100.00;93346.38;5050921;28;20276;-55
2023/01/10 10:40:17;;;;;;;34.73;19.43;;;;;;;5.61;100.00;93351.69;5051322;28;20269;-54
2023/01/10 10:42:50;;;;;;;35.33;19.80;;;;;;;5.47;100.00;93342.00;5050709;28;20200;-58
2023/01/10 10:45:27;;;;;;;30.97;18.77;;;;;;;5.44;100.00;93347.28;5050610;28;20222;-56
2023/01/10 10:48:02;;;;;;;30.10;17.33;;;;;;;5.35;100.00;93343.84;5050415;28;20196;-56
2023/01/10 10:50:34;;;;;;;37.00;18.90;;;;;;;5.26;100.00;93333.75;5032836;28;20223;-57
2023/01/10 10:53:02;;;;;;;41.27;18.50;;;;;;;5.08;100.00;93324.31;5050505;28;20188;-55
2023/01/10 10:55:34;;;;;;;37.47;18.93;;;;;;;5.18;100.00;93329.38;5050834;28;20220;-56
2023/01/10 10:58:00;;;;;;;43.07;21.93;;;;;;;5.09;100.00;93335.16;5050551;28;20185;-59
2023/01/10 11:00:27;;;;;;;39.67;20.53;;;;;;;5.13;100.00;93334.78;5060526;22;20231;-54
2023/01/10 11:03:14;;;;;;;34.57;19.90;;;;;;;5.10;100.00;93342.63;5050316;28;20196;-55
2023/01/10 11:05:43;;;;;;;33.83;19.83;;;;;;;5.17;100.00;93332.81;5050708;28;20575;-55
2023/01/10 11:08:21;;;;;;;32.60;19.20;;;;;;;5.13;100.00;93314.63;5050628;28;20277;-54
2023/01/10 11:10:55;;;;;;;33.63;18.60;;;;;;;5.18;100.00;93319.28;5050730;28;20217;-54
2023/01/10 11:13:37;;;;;;;39.23;19.80;;;;;;;5.06;100.00;93308.53;5050313;28;20220;-59
2023/01/10 11:16:06;;;;;;;40.67;21.60;;;;;;;5.07;100.00;93315.16;5050598;28;20709;-56
2023/01/10 11:18:32;;;;;;;45.50;22.93;;;;;;;5.06;100.00;93298.47;5050377;28;20196;-54
2023/01/10 11:21:00;;;;;;;41.47;21.40;;;;;;;4.03;100.00;93147.16;5051811;28;20292;-53
2023/01/10 11:23:40;;;;;;;38.93;21.43;;;;;;;5.02;100.00;93302.19;5035955;28;20258;-53
2023/01/10 11:26:20;;;;;;;44.57;22.93;;;;;;;5.10;100.00;93309.88;5053738;28;20366;-54
2023/01/10 11:28:46;;;;;;;42.67;22.07;;;;;;;5.05;100.00;93311.16;5053532;28;20199;-54
2023/01/10 11:31:11;;;;;;;40.07;22.13;;;;;;;5.18;100.00;93301.66;5054014;28;20217;-53
2023/01/10 11:33:38;;;;;;;47.87;24.57;;;;;;;5.35;100.00;93307.78;5053589;28;20686;-53
2023/01/10 11:36:11;;;;;;;38.17;21.47;;;;;;;5.52;100.00;93304.56;5054019;28;20221;-54
2023/01/10 11:38:37;;;;;;;40.50;22.40;;;;;;;5.62;100.00;93320.50;5053811;28;20208;-53
2023/01/10 11:41:30;;;;;;;41.93;22.87;;;;;;;5.25;100.00;93312.00;5053850;28;20205;-55
2023/01/10 11:44:15;;;;;;;40.77;23.53;;;;;;;5.32;100.00;93318.91;5043797;28;20259;-54
2023/01/10 11:46:45;;;;;;;40.60;22.73;;;;;;;5.30;100.00;93310.69;5053086;28;20220;-54
2023/01/10 11:49:18;;;;;;;48.10;24.50;;;;;;;5.15;100.00;93309.50;5053122;28;20196;-53